sensor_id;sensor_type;location;lat;lon;timestamp;pressure;altitude;pressure_sealevel;temperature;humidity
47763;BME280;33526;42.690;23.322;2023-04-08T06:07:48;95211.06;;;7.22;58.34
47763;BME280;33526;42.690;23.322;2023-04-08T06:10:17;95206.19;;;7.13;58.93
47763;BME280;33526;42.690;23.322;2023-04-08T06:12:44;95197.72;;;7.30;58.47
47763;BME280;33526;42.690;23.322;2023-04-08T06:15:11;95203.53;;;7.48;58.52
47763;BME280;33526;42.690;23.322;2023-04-08T06:17:46;95202.63;;;7.51;58.94
47763;BME280;33526;42.690;23.322;2023-04-08T06:20:15;95199.63;;;7.71;59.03
47763;BME280;33526;42.690;23.322;2023-04-08T06:22:42;95196.47;;;7.82;58.48
47763;BME280;33526;42.690;23.322;2023-04-08T06:25:07;95209.25;;;7.92;58.75
47763;BME280;33526;42.690;23.322;2023-04-08T06:27:35;95199.97;;;8.08;58.61
47763;BME280;33526;42.690;23.322;2023-04-08T06:30:12;95211.56;;;8.07;58.32
47763;BME280;33526;42.690;23.322;2023-04-08T06:32:45;95213.03;;;8.11;58.37
47763;BME280;33526;42.690;23.322;2023-04-08T06:35:13;95203.97;;;8.20;58.10
47763;BME280;33526;42.690;23.322;2023-04-08T06:37:38;95211.28;;;8.39;58.12
47763;BME280;33526;42.690;23.322;2023-04-08T06:40:05;95209.06;;;8.34;58.29
47763;BME280;33526;42.690;23.322;2023-04-08T06:42:33;95209.16;;;8.44;57.62
47763;BME280;33526;42.690;23.322;2023-04-08T06:45:00;95220.44;;;8.27;58.05
47763;BME280;33526;42.690;23.322;2023-04-08T06:47:25;95218.94;;;8.00;58.88
47763;BME280;33526;42.690;23.322;2023-04-08T06:49:53;95207.88;;;8.10;59.07
47763;BME280;33526;42.690;23.322;2023-04-08T06:52:24;95219.81;;;8.10;59.15
47763;BME280;33526;42.690;23.322;2023-04-08T06:54:54;95210.53;;;8.26;59.56
47763;BME280;33526;42.690;23.322;2023-04-08T06:57:21;95218.44;;;8.28;58.94
47763;BME280;33526;42.690;23.322;2023-04-08T06:59:50;95220.13;;;8.60;58.65
47763;BME280;33526;42.690;23.322;2023-04-08T07:02:17;95216.41;;;8.41;58.88
47763;BME280;33526;42.690;23.322;2023-04-08T07:04:45;95206.19;;;8.25;59.25
47763;BME280;33526;42.690;23.322;2023-04-08T07:07:13;95215.97;;;8.30;59.49
47763;BME280;33526;42.690;23.322;2023-04-08T07:09:39;95204.03;;;8.42;59.61
47763;BME280;33526;42.690;23.322;2023-04-08T07:12:25;95209.31;;;8.62;59.94
47763;BME280;33526;42.690;23.322;2023-04-08T07:14:50;95208.53;;;8.61;58.69
47763;BME280;33526;42.690;23.322;2023-04-08T07:17:18;95210.47;;;8.96;59.12
47763;BME280;33526;42.690;23.322;2023-04-08T07:19:49;95214.53;;;8.95;58.22
47763;BME280;33526;42.690;23.322;2023-04-08T07:22:17;95225.91;;;9.10;59.58
47763;BME280;33526;42.690;23.322;2023-04-08T07:24:47;95224.41;;;8.96;57.69
47763;BME280;33526;42.690;23.322;2023-04-08T07:27:40;95225.66;;;8.95;58.23
47763;BME280;33526;42.690;23.322;2023-04-08T07:30:11;95224.75;;;8.98;57.83
47763;BME280;33526;42.690;23.322;2023-04-08T07:32:38;95228.25;;;9.11;57.91
47763;BME280;33526;42.690;23.322;2023-04-08T07:35:10;95228.13;;;8.93;57.88
47763;BME280;33526;42.690;23.322;2023-04-08T07:37:38;95227.66;;;8.94;58.36
47763;BME280;33526;42.690;23.322;2023-04-08T07:40:04;95229.53;;;9.19;58.06
47763;BME280;33526;42.690;23.322;2023-04-08T07:42:31;95221.22;;;9.29;58.08
47763;BME280;33526;42.690;23.322;2023-04-08T07:44:57;95233.63;;;9.59;57.82
47763;BME280;33526;42.690;23.322;2023-04-08T07:47:27;95241.09;;;9.09;58.29
47763;BME280;33526;42.690;23.322;2023-04-08T07:50:10;95244.09;;;9.46;57.56
47763;BME280;33526;42.690;23.322;2023-04-08T07:52:40;95233.88;;;9.83;58.05
47763;BME280;33526;42.690;23.322;2023-04-08T07:55:06;95247.91;;;10.02;56.05
47763;BME280;33526;42.690;23.322;2023-04-08T07:57:35;95246.84;;;9.68;56.05
47763;BME280;33526;42.690;23.322;2023-04-08T08:00:00;95250.13;;;9.44;57.81
47763;BME280;33526;42.690;23.322;2023-04-08T08:02:27;95247.06;;;9.51;57.37
47763;BME280;33526;42.690;23.322;2023-04-08T08:04:54;95255.59;;;9.88;56.95
47763;BME280;33526;42.690;23.322;2023-04-08T08:07:23;95257.22;;;10.08;56.14
47763;BME280;33526;42.690;23.322;2023-04-08T08:09:55;95256.88;;;10.37;55.16
47763;BME280;33526;42.690;23.322;2023-04-08T08:12:27;95258.31;;;10.01;56.49
47763;BME280;33526;42.690;23.322;2023-04-08T08:23:02;95254.25;;;9.62;57.64
47763;BME280;33526;42.690;23.322;2023-04-08T08:26:13;95256.00;;;9.77;57.66
47763;BME280;33526;42.690;23.322;2023-04-08T08:31:58;95267.47;;;10.11;56.11
47763;BME280;33526;42.690;23.322;2023-04-08T08:40:42;95267.09;;;10.31;55.41
47763;BME280;33526;42.690;23.322;2023-04-08T08:43:15;95264.63;;;9.92;56.18
47763;BME280;33526;42.690;23.322;2023-04-08T08:45:56;95266.56;;;10.14;55.98
47763;BME280;33526;42.690;23.322;2023-04-08T08:48:25;95260.16;;;10.04;55.69
47763;BME280;33526;42.690;23.322;2023-04-08T10:41:10;95203.72;;;12.30;49.61
47763;BME280;33526;42.690;23.322;2023-04-08T10:44:02;95201.41;;;12.52;49.17
47763;BME280;33526;42.690;23.322;2023-04-08T10:46:49;95197.78;;;12.76;48.37
47763;BME280;33526;42.690;23.322;2023-04-08T10:49:31;95193.66;;;12.47;48.72
47763;BME280;33526;42.690;23.322;2023-04-08T10:54:45;95180.75;;;12.65;49.63
47763;BME280;33526;42.690;23.322;2023-04-08T10:57:55;95185.22;;;12.71;48.38
47763;BME280;33526;42.690;23.322;2023-04-08T11:13:08;95159.13;;;13.10;47.18
47763;BME280;33526;42.690;23.322;2023-04-08T11:16:02;95167.56;;;13.10;47.72
47763;BME280;33526;42.690;23.322;2023-04-08T11:28:05;95154.94;;;13.05;46.62
47763;BME280;33526;42.690;23.322;2023-04-08T11:33:35;95144.59;;;13.26;44.46
47763;BME280;33526;42.690;23.322;2023-04-08T11:42:32;95136.56;;;13.19;44.33
47763;BME280;33526;42.690;23.322;2023-04-08T11:44:57;95135.72;;;13.43;44.84
47763;BME280;33526;42.690;23.322;2023-04-08T12:05:29;95118.22;;;13.68;42.20
47763;BME280;33526;42.690;23.322;2023-04-08T12:08:04;95118.34;;;13.59;42.71
47763;BME280;33526;42.690;23.322;2023-04-08T12:10:36;95108.25;;;13.67;43.18
47763;BME280;33526;42.690;23.322;2023-04-08T12:13:03;95097.91;;;13.58;43.28
47763;BME280;33526;42.690;23.322;2023-04-08T12:15:39;95094.06;;;13.41;43.53
47763;BME280;33526;42.690;23.322;2023-04-08T12:18:12;95098.72;;;12.99;44.37
47763;BME280;33526;42.690;23.322;2023-04-08T12:20:38;95097.38;;;13.10;44.54
47763;BME280;33526;42.690;23.322;2023-04-08T12:23:04;95111.50;;;13.15;44.19
47763;BME280;33526;42.690;23.322;2023-04-08T12:25:33;95109.56;;;12.77;44.39
47763;BME280;33526;42.690;23.322;2023-04-08T12:27:58;95101.75;;;12.81;44.51
47763;BME280;33526;42.690;23.322;2023-04-08T12:30:23;95100.78;;;12.84;44.99
47763;BME280;33526;42.690;23.322;2023-04-08T12:32:49;95096.59;;;12.94;44.31
47763;BME280;33526;42.690;23.322;2023-04-08T12:35:15;95100.66;;;12.63;45.64
47763;BME280;33526;42.690;23.322;2023-04-08T12:37:42;95094.75;;;12.47;45.85
47763;BME280;33526;42.690;23.322;2023-04-08T12:40:07;95086.72;;;12.54;45.26
47763;BME280;33526;42.690;23.322;2023-04-08T12:42:34;95083.44;;;12.71;45.59
47763;BME280;33526;42.690;23.322;2023-04-08T12:45:03;95080.91;;;12.58;46.12
47763;BME280;33526;42.690;23.322;2023-04-08T12:47:29;95083.91;;;12.54;45.81
47763;BME280;33526;42.690;23.322;2023-04-08T12:49:55;95086.13;;;12.50;45.89
47763;BME280;33526;42.690;23.322;2023-04-08T12:52:20;95075.69;;;12.66;46.42
47763;BME280;33526;42.690;23.322;2023-04-08T12:54:48;95085.97;;;12.69;46.06
47763;BME280;33526;42.690;23.322;2023-04-08T12:57:34;95090.91;;;12.74;46.08
47763;BME280;33526;42.690;23.322;2023-04-08T13:00:00;95100.28;;;12.71;47.20
47763;BME280;33526;42.690;23.322;2023-04-08T13:02:32;95112.31;;;12.47;47.51
47763;BME280;33526;42.690;23.322;2023-04-08T13:05:25;95108.34;;;12.39;47.87
47763;BME280;33526;42.690;23.322;2023-04-08T13:07:50;95112.38;;;12.23;48.26
47763;BME280;33526;42.690;23.322;2023-04-08T13:10:16;95116.25;;;12.26;48.45
47763;BME280;33526;42.690;23.322;2023-04-08T13:12:45;95114.09;;;12.20;48.70
47763;BME280;33526;42.690;23.322;2023-04-08T13:15:12;95108.84;;;12.13;48.35
47763;BME280;33526;42.690;23.322;2023-04-08T13:17:39;95105.53;;;12.00;48.90
47763;BME280;33526;42.690;23.322;2023-04-08T13:20:25;95104.94;;;11.96;49.25
47763;BME280;33526;42.690;23.322;2023-04-08T13:22:51;95102.06;;;12.05;48.92
47763;BME280;33526;42.690;23.322;2023-04-08T13:25:20;95104.44;;;12.21;48.81
47763;BME280;33526;42.690;23.322;2023-04-08T13:27:48;95092.69;;;12.47;49.30
47763;BME280;33526;42.690;23.322;2023-04-08T13:30:14;95097.06;;;12.63;50.25
47763;BME280;33526;42.690;23.322;2023-04-08T13:32:40;95096.22;;;12.72;49.46
47763;BME280;33526;42.690;23.322;2023-04-08T13:35:13;95088.38;;;12.46;49.93
47763;BME280;33526;42.690;23.322;2023-04-08T13:37:38;95086.06;;;12.59;52.86
47763;BME280;33526;42.690;23.322;2023-04-08T13:40:04;95093.88;;;12.55;52.29
47763;BME280;33526;42.690;23.322;2023-04-08T13:42:31;95087.28;;;12.43;50.66
47763;BME280;33526;42.690;23.322;2023-04-08T13:44:59;95087.06;;;12.32;49.26
47763;BME280;33526;42.690;23.322;2023-04-08T13:47:25;95084.94;;;12.42;49.47
47763;BME280;33526;42.690;23.322;2023-04-08T13:49:52;95082.88;;;12.67;49.49
47763;BME280;33526;42.690;23.322;2023-04-08T13:52:18;95090.22;;;12.79;48.10
47763;BME280;33526;42.690;23.322;2023-04-08T13:54:45;95084.03;;;12.90;49.22
47763;BME280;33526;42.690;23.322;2023-04-08T13:57:10;95079.56;;;13.13;48.15
47763;BME280;33526;42.690;23.322;2023-04-08T13:59:36;95077.22;;;13.26;48.70
47763;BME280;33526;42.690;23.322;2023-04-08T14:02:02;95082.91;;;13.47;48.44
47763;BME280;33526;42.690;23.322;2023-04-08T14:04:30;95082.06;;;13.41;51.37
47763;BME280;33526;42.690;23.322;2023-04-08T14:06:58;95079.53;;;13.43;50.86
47763;BME280;33526;42.690;23.322;2023-04-08T14:09:25;95078.69;;;13.36;49.25
47763;BME280;33526;42.690;23.322;2023-04-08T14:11:51;95067.75;;;13.38;50.80
47763;BME280;33526;42.690;23.322;2023-04-08T14:14:19;95074.06;;;13.18;53.70
47763;BME280;33526;42.690;23.322;2023-04-08T14:16:45;95081.41;;;13.01;56.00
47763;BME280;33526;42.690;23.322;2023-04-08T14:19:16;95086.53;;;12.73;56.30
47763;BME280;33526;42.690;23.322;2023-04-08T14:21:45;95076.16;;;12.49;57.48
47763;BME280;33526;42.690;23.322;2023-04-08T14:24:31;95085.94;;;12.39;59.06
47763;BME280;33526;42.690;23.322;2023-04-08T14:26:58;95070.22;;;12.17;58.01
47763;BME280;33526;42.690;23.322;2023-04-08T14:29:23;95073.97;;;12.14;57.75
47763;BME280;33526;42.690;23.322;2023-04-08T14:31:49;95075.47;;;12.24;57.21
47763;BME280;33526;42.690;23.322;2023-04-08T14:34:14;95069.59;;;11.98;56.35
47763;BME280;33526;42.690;23.322;2023-04-08T14:36:42;95068.00;;;11.97;57.65
47763;BME280;33526;42.690;23.322;2023-04-08T14:39:07;95075.38;;;11.95;58.36
47763;BME280;33526;42.690;23.322;2023-04-08T14:41:35;95075.69;;;11.88;58.03
47763;BME280;33526;42.690;23.322;2023-04-08T14:44:04;95080.06;;;11.89;58.09
47763;BME280;33526;42.690;23.322;2023-04-08T14:46:31;95077.91;;;12.08;57.80
47763;BME280;33526;42.690;23.322;2023-04-08T14:48:57;95084.44;;;12.14;57.65
47763;BME280;33526;42.690;23.322;2023-04-08T14:51:25;95082.53;;;11.96;57.19
47763;BME280;33526;42.690;23.322;2023-04-08T14:53:50;95085.63;;;11.64;58.30
47763;BME280;33526;42.690;23.322;2023-04-08T14:56:17;95085.53;;;11.59;58.11
47763;BME280;33526;42.690;23.322;2023-04-08T14:58:43;95087.63;;;11.73;58.08
47763;BME280;33526;42.690;23.322;2023-04-08T15:01:08;95093.22;;;11.73;57.27
47763;BME280;33526;42.690;23.322;2023-04-08T15:03:35;95090.75;;;11.66;57.28
47763;BME280;33526;42.690;23.322;2023-04-08T15:06:01;95087.13;;;11.51;56.65
47763;BME280;33526;42.690;23.322;2023-04-08T15:08:26;95088.38;;;11.50;56.93
47763;BME280;33526;42.690;23.322;2023-04-08T15:10:57;95094.91;;;11.46;56.26
47763;BME280;33526;42.690;23.322;2023-04-08T15:13:26;95100.22;;;11.44;57.39
47763;BME280;33526;42.690;23.322;2023-04-08T15:16:14;95103.94;;;11.51;56.70
47763;BME280;33526;42.690;23.322;2023-04-08T15:23:34;95101.50;;;11.34;56.60
47763;BME280;33526;42.690;23.322;2023-04-08T15:28:54;95097.63;;;11.32;57.60
47763;BME280;33526;42.690;23.322;2023-04-08T15:51:12;95100.91;;;10.78;59.16
47763;BME280;33526;42.690;23.322;2023-04-08T16:00:05;95103.50;;;10.91;60.59
47763;BME280;33526;42.690;23.322;2023-04-08T16:14:28;95109.78;;;10.03;64.00
47763;BME280;33526;42.690;23.322;2023-04-08T16:23:45;95120.91;;;9.75;65.19
47763;BME280;33526;42.690;23.322;2023-04-08T16:29:30;95116.25;;;9.72;63.97
47763;BME280;33526;42.690;23.322;2023-04-08T16:32:21;95127.22;;;9.57;64.51
47763;BME280;33526;42.690;23.322;2023-04-08T16:34:48;95123.84;;;9.71;64.46
47763;BME280;33526;42.690;23.322;2023-04-08T16:37:13;95125.56;;;9.78;64.34
47763;BME280;33526;42.690;23.322;2023-04-08T16:39:39;95134.25;;;9.71;63.83
47763;BME280;33526;42.690;23.322;2023-04-08T16:42:04;95137.81;;;9.81;65.11
47763;BME280;33526;42.690;23.322;2023-04-08T16:44:30;95129.00;;;9.82;66.42
47763;BME280;33526;42.690;23.322;2023-04-08T16:46:55;95135.19;;;9.86;68.27
47763;BME280;33526;42.690;23.322;2023-04-08T16:49:21;95142.50;;;9.84;68.38
47763;BME280;33526;42.690;23.322;2023-04-08T16:51:46;95145.13;;;9.78;68.83
47763;BME280;33526;42.690;23.322;2023-04-08T16:54:13;95138.75;;;9.77;67.31
47763;BME280;33526;42.690;23.322;2023-04-08T16:56:41;95150.28;;;9.89;68.89
47763;BME280;33526;42.690;23.322;2023-04-08T16:59:09;95152.91;;;9.83;69.66
47763;BME280;33526;42.690;23.322;2023-04-08T17:01:36;95156.00;;;9.85;66.49
47763;BME280;33526;42.690;23.322;2023-04-08T17:04:03;95158.44;;;9.74;68.65
47763;BME280;33526;42.690;23.322;2023-04-08T17:06:33;95153.78;;;9.62;68.05
47763;BME280;33526;42.690;23.322;2023-04-08T17:09:01;95162.28;;;9.58;68.83
47763;BME280;33526;42.690;23.322;2023-04-08T17:11:28;95164.44;;;9.54;69.11
47763;BME280;33526;42.690;23.322;2023-04-08T17:13:56;95164.44;;;9.54;69.17
47763;BME280;33526;42.690;23.322;2023-04-08T17:16:24;95177.00;;;9.59;70.01
47763;BME280;33526;42.690;23.322;2023-04-08T17:18:54;95182.59;;;9.59;70.78
47763;BME280;33526;42.690;23.322;2023-04-08T17:35:42;95203.75;;;8.84;80.44
47763;BME280;33526;42.690;23.322;2023-04-08T17:38:16;95215.94;;;8.77;80.83
47763;BME280;33526;42.690;23.322;2023-04-08T18:10:48;95265.81;;;8.15;86.25
47763;BME280;33526;42.690;23.322;2023-04-08T18:13:28;95271.06;;;8.13;85.32
47763;BME280;33526;42.690;23.322;2023-04-08T18:16:32;95265.28;;;8.07;85.79
47763;BME280;33526;42.690;23.322;2023-04-08T18:19:00;95272.06;;;7.93;84.13
47763;BME280;33526;42.690;23.322;2023-04-08T18:21:49;95272.06;;;8.06;86.00
47763;BME280;33526;42.690;23.322;2023-04-08T18:32:46;95279.66;;;7.93;87.81
47763;BME280;33526;42.690;23.322;2023-04-08T18:35:22;95283.31;;;7.90;88.20
47763;BME280;33526;42.690;23.322;2023-04-08T18:38:06;95278.63;;;7.99;87.75
47763;BME280;33526;42.690;23.322;2023-04-08T18:40:36;95285.31;;;8.02;86.63
47763;BME280;33526;42.690;23.322;2023-04-08T18:43:04;95283.22;;;7.93;86.05
47763;BME280;33526;42.690;23.322;2023-04-08T18:45:41;95278.19;;;7.88;85.86
47763;BME280;33526;42.690;23.322;2023-04-08T18:48:09;95280.44;;;7.80;88.05
47763;BME280;33526;42.690;23.322;2023-04-08T19:01:29;95285.78;;;7.62;88.17
47763;BME280;33526;42.690;23.322;2023-04-08T19:04:23;95289.78;;;7.61;88.70
47763;BME280;33526;42.690;23.322;2023-04-08T19:06:53;95289.88;;;7.57;88.65
47763;BME280;33526;42.690;23.322;2023-04-08T19:11:57;95305.03;;;7.56;87.34
47763;BME280;33526;42.690;23.322;2023-04-08T19:14:50;95313.94;;;7.51;86.99
47763;BME280;33526;42.690;23.322;2023-04-08T19:25:49;95308.09;;;7.33;90.62
47763;BME280;33526;42.690;23.322;2023-04-08T19:28:44;95315.31;;;7.30;91.85
47763;BME280;33526;42.690;23.322;2023-04-08T19:34:50;95325.19;;;7.18;94.94
47763;BME280;33526;42.690;23.322;2023-04-08T19:51:45;95328.13;;;7.27;93.94
47763;BME280;33526;42.690;23.322;2023-04-08T19:54:35;95331.91;;;7.34;94.65
47763;BME280;33526;42.690;23.322;2023-04-08T19:57:04;95332.16;;;7.52;94.91
47763;BME280;33526;42.690;23.322;2023-04-08T19:59:32;95322.28;;;7.51;94.85
47763;BME280;33526;42.690;23.322;2023-04-08T20:01:58;95333.63;;;7.44;94.88
47763;BME280;33526;42.690;23.322;2023-04-08T20:04:24;95330.94;;;7.40;95.22
47763;BME280;33526;42.690;23.322;2023-04-08T20:06:52;95327.72;;;7.42;94.02
47763;BME280;33526;42.690;23.322;2023-04-08T20:09:17;95326.34;;;7.34;93.26
47763;BME280;33526;42.690;23.322;2023-04-08T20:11:43;95327.72;;;7.42;93.02
47763;BME280;33526;42.690;23.322;2023-04-08T20:14:13;95323.81;;;7.52;92.84
47763;BME280;33526;42.690;23.322;2023-04-08T20:16:40;95322.41;;;7.60;91.19
47763;BME280;33526;42.690;23.322;2023-04-08T20:19:06;95316.81;;;7.60;89.66
47763;BME280;33526;42.690;23.322;2023-04-08T20:21:53;95323.28;;;7.70;89.23
47763;BME280;33526;42.690;23.322;2023-04-08T20:24:23;95324.84;;;7.71;88.53
47763;BME280;33526;42.690;23.322;2023-04-08T20:26:55;95335.44;;;7.76;88.33
47763;BME280;33526;42.690;23.322;2023-04-08T20:29:27;95327.31;;;7.82;87.22
47763;BME280;33526;42.690;23.322;2023-04-08T20:35:45;95330.09;;;7.95;86.24
47763;BME280;33526;42.690;23.322;2023-04-08T20:41:47;95336.31;;;7.99;86.66
47763;BME280;33526;42.690;23.322;2023-04-08T20:49:42;95325.97;;;7.99;86.45
47763;BME280;33526;42.690;23.322;2023-04-08T20:54:59;95331.75;;;7.92;86.90
47763;BME280;33526;42.690;23.322;2023-04-08T20:57:31;95326.88;;;7.96;86.88
47763;BME280;33526;42.690;23.322;2023-04-08T21:00:33;95330.88;;;7.95;88.25
47763;BME280;33526;42.690;23.322;2023-04-08T21:03:05;95331.75;;;7.92;88.38
47763;BME280;33526;42.690;23.322;2023-04-08T21:30:48;95311.25;;;7.60;88.14
47763;BME280;33526;42.690;23.322;2023-04-08T21:38:48;95318.59;;;7.54;89.92
47763;BME280;33526;42.690;23.322;2023-04-08T22:07:52;95304.44;;;7.49;90.80
47763;BME280;33526;42.690;23.322;2023-04-08T22:18:59;95297.22;;;7.38;90.62
47763;BME280;33526;42.690;23.322;2023-04-08T22:32:45;95250.22;;;6.73;92.04
47763;BME280;33526;42.690;23.322;2023-04-08T22:35:37;95309.78;;;7.01;91.78
